Time;durP1;ratioP1;P1;durP2;ratioP2;P2;SDS_P1;SDS_P2;PMS_P1;PMS_P2;Temp;Humidity;BMP_temperature;BMP_pressure;BME280_temperature;BME280_humidity;BME280_pressure;Samples;Min_cycle;Max_cycle;Signal;HPM_P1;HPM_P2
2022/04/18 00:03:03;;;;;;;1.35;0.40;;;7.30;66.20;;;;;;10201591;28;20070;-90
2022/04/18 00:08:08;;;;;;;4.22;0.68;;;7.30;67.60;;;;;;10163367;28;20053;-90
2022/04/18 00:13:17;;;;;;;1.90;0.50;;;7.20;67.70;;;;;;10143721;28;20084;-90
2022/04/18 00:18:23;;;;;;;3.67;0.40;;;7.20;68.50;;;;;;10219975;28;20046;-90
2022/04/18 00:23:33;;;;;;;0.90;0.40;;;7.20;69.00;;;;;;10252330;28;20062;-89
2022/04/18 00:28:39;;;;;;;1.10;0.40;;;7.10;69.20;;;;;;10175101;28;20043;-89
2022/04/18 00:33:42;;;;;;;3.63;0.38;;;7.00;68.50;;;;;;10196047;28;20056;-89
2022/04/18 00:38:51;;;;;;;4.53;0.70;;;6.90;69.40;;;;;;10235141;28;20062;-88
2022/04/18 00:43:56;;;;;;;1.20;0.40;;;6.90;70.50;;;;;;10242722;28;20476;-89
2022/04/18 00:48:59;;;;;;;1.88;0.30;;;6.80;68.40;;;;;;10278493;28;20080;-89
2022/04/18 00:54:03;;;;;;;1.13;0.30;;;6.70;67.80;;;;;;10251974;28;20095;-89
2022/04/18 00:59:07;;;;;;;2.28;0.40;;;6.70;68.10;;;;;;10226035;28;20039;-89
2022/04/18 01:04:10;;;;;;;1.42;0.50;;;6.70;69.30;;;;;;10296540;28;20038;-88
2022/04/18 01:09:12;;;;;;;3.17;0.55;;;6.70;70.70;;;;;;10301506;28;20030;-88
2022/04/18 01:14:14;;;;;;;0.75;0.40;;;6.60;73.20;;;;;;10307910;28;20093;-88
2022/04/18 01:19:17;;;;;;;1.30;0.50;;;6.50;73.00;;;;;;10296514;28;20062;-88
2022/04/18 01:29:39;;;;;;;0.60;0.30;;;6.30;73.40;;;;;;10308445;28;20029;-88
2022/04/18 01:34:41;;;;;;;2.03;0.85;;;6.30;75.10;;;;;;10311345;28;20095;-89
2022/04/18 01:39:43;;;;;;;1.13;0.57;;;6.20;76.20;;;;;;10314960;28;20038;-88
2022/04/18 01:44:44;;;;;;;1.98;0.40;;;6.10;78.00;;;;;;10290809;28;20038;-88
2022/04/18 01:49:46;;;;;;;1.20;0.47;;;6.10;78.40;;;;;;10314369;28;20116;-88
2022/04/18 01:54:48;;;;;;;1.67;0.60;;;6.00;79.20;;;;;;10303091;28;20050;-88
2022/04/18 01:59:50;;;;;;;1.50;0.32;;;6.00;81.00;;;;;;10329586;28;20050;-88
2022/04/18 02:04:52;;;;;;;1.77;0.40;;;5.80;81.80;;;;;;10340917;28;20048;-88
2022/04/18 02:09:55;;;;;;;1.15;0.50;;;5.70;83.20;;;;;;10341590;28;20066;-89
2022/04/18 02:14:57;;;;;;;2.15;0.50;;;5.60;82.40;;;;;;10354068;28;20475;-89
2022/04/18 02:19:59;;;;;;;3.42;0.50;;;5.60;85.30;;;;;;10325651;28;20133;-88
2022/04/18 02:25:00;;;;;;;1.23;0.40;;;5.60;88.80;;;;;;10332429;28;20066;-89
2022/04/18 02:30:04;;;;;;;0.70;0.50;;;5.40;88.90;;;;;;10312570;28;20544;-90
2022/04/18 02:35:07;;;;;;;0.50;0.30;;;5.40;89.50;;;;;;10277165;28;20054;-90
2022/04/18 02:40:10;;;;;;;3.03;0.63;;;5.40;89.90;;;;;;10303981;28;20054;-88
2022/04/18 02:45:14;;;;;;;2.30;0.60;;;5.30;91.50;;;;;;10359330;28;20129;-89
2022/04/18 02:50:17;;;;;;;2.58;0.50;;;5.30;92.50;;;;;;10348637;28;20069;-89
2022/04/18 02:55:19;;;;;;;4.97;0.68;;;5.20;93.70;;;;;;10358594;28;20045;-88
2022/04/18 03:00:21;;;;;;;2.15;0.40;;;5.10;93.90;;;;;;10321532;28;20102;-89
2022/04/18 03:05:23;;;;;;;2.17;0.70;;;5.00;94.50;;;;;;10342926;28;20053;-90
2022/04/18 03:15:46;;;;;;;5.53;0.80;;;4.90;95.90;;;;;;10341092;28;20057;-89
2022/04/18 03:20:48;;;;;;;4.05;0.50;;;4.80;96.90;;;;;;10336055;28;20075;-88
2022/04/18 03:26:04;;;;;;;0.90;0.43;;;4.70;95.40;;;;;;10326141;28;20537;-89
2022/04/18 03:31:06;;;;;;;2.00;0.68;;;4.70;95.70;;;;;;10349292;28;20493;-89
2022/04/18 03:41:29;;;;;;;0.77;0.45;;;4.70;96.90;;;;;;10344430;28;20073;-89
2022/04/18 03:46:34;;;;;;;2.55;0.50;;;4.70;97.40;;;;;;10261775;28;20050;-90
2022/04/18 03:51:47;;;;;;;4.22;0.60;;;4.70;97.10;;;;;;10243100;28;20054;-89
2022/04/18 03:56:52;;;;;;;1.23;0.40;;;4.60;97.80;;;;;;10295979;28;20041;-90
2022/04/18 04:01:55;;;;;;;1.00;0.40;;;4.50;98.30;;;;;;10234211;28;20050;-89
2022/04/18 04:06:58;;;;;;;2.45;0.60;;;4.50;98.50;;;;;;10348599;28;20133;-89
2022/04/18 04:12:00;;;;;;;1.38;0.47;;;4.50;98.50;;;;;;10339351;28;20046;-90
2022/04/18 04:17:03;;;;;;;2.67;0.38;;;4.40;99.30;;;;;;10287834;28;20059;-89
2022/04/18 04:22:09;;;;;;;1.40;0.40;;;4.40;99.30;;;;;;10292719;28;20062;-89
2022/04/18 04:27:10;;;;;;;1.27;0.43;;;4.40;99.70;;;;;;10329929;28;20061;-90
2022/04/18 04:32:13;;;;;;;2.47;0.50;;;4.40;98.90;;;;;;10333159;28;20158;-91
2022/04/18 04:37:15;;;;;;;1.33;0.52;;;4.40;99.20;;;;;;10344153;28;20061;-91
2022/04/18 04:42:23;;;;;;;1.83;0.60;;;4.40;99.00;;;;;;10350396;28;20054;-92
2022/04/18 04:47:24;;;;;;;0.75;0.47;;;4.40;98.00;;;;;;10352005;28;23034;-91
2022/04/18 04:52:26;;;;;;;4.28;0.80;;;4.30;99.00;;;;;;10346246;28;20078;-90
2022/04/18 04:57:28;;;;;;;5.47;1.35;;;4.20;99.40;;;;;;10346914;28;20056;-90
2022/04/18 05:02:30;;;;;;;8.13;1.80;;;4.20;98.80;;;;;;10321551;28;20039;-91
2022/04/18 05:07:32;;;;;;;4.07;1.30;;;4.30;99.30;;;;;;10321982;28;20036;-89
2022/04/18 05:12:34;;;;;;;3.30;1.42;;;4.30;99.50;;;;;;10310690;28;20033;-91
2022/04/18 05:17:37;;;;;;;3.88;1.02;;;4.30;99.60;;;;;;10285865;28;20097;-90
2022/04/18 05:22:39;;;;;;;1.38;0.60;;;4.40;99.70;;;;;;10308463;28;20034;-91
2022/04/18 05:27:42;;;;;;;1.80;0.60;;;4.50;98.60;;;;;;10317916;28;20052;-92
2022/04/18 05:32:46;;;;;;;2.33;0.40;;;4.60;98.90;;;;;;10300727;28;20060;-91
2022/04/18 05:37:54;;;;;;;3.33;0.82;;;4.80;97.60;;;;;;9958437;28;20049;-90
2022/04/18 05:43:03;;;;;;;2.85;0.68;;;4.90;97.70;;;;;;9972055;28;20061;-91
2022/04/18 05:48:07;;;;;;;2.60;0.65;;;5.00;97.50;;;;;;10023130;28;20052;-90
2022/04/18 05:53:10;;;;;;;1.63;0.57;;;5.20;95.50;;;;;;10169211;28;20055;-90
2022/04/18 05:58:14;;;;;;;2.03;0.60;;;5.30;95.20;;;;;;10270253;28;20058;-90
2022/04/18 06:03:28;;;;;;;4.28;0.63;;;5.60;96.20;;;;;;10067646;28;20133;-92
2022/04/18 06:08:53;;;;;;;3.00;0.60;;;5.70;97.50;;;;;;10007650;28;20055;-92
2022/04/18 06:14:19;;;;;;;3.47;0.50;;;5.90;97.90;;;;;;10107578;28;20465;-91
2022/04/18 06:19:23;;;;;;;1.02;0.50;;;6.20;98.60;;;;;;10146332;28;20063;-91
2022/04/18 06:24:30;;;;;;;1.98;0.60;;;6.40;97.60;;;;;;10049541;28;20123;-91
2022/04/18 06:29:40;;;;;;;4.07;0.90;;;6.50;96.70;;;;;;10080713;28;20038;-91
2022/04/18 06:35:19;;;;;;;2.47;0.70;;;6.80;97.30;;;;;;10047658;28;21898;-92
2022/04/18 06:41:22;;;;;;;1.55;1.25;;;7.00;95.40;;;;;;9947578;28;20066;-91
2022/04/18 06:46:49;;;;;;;1.17;0.88;;;7.30;93.50;;;;;;9789199;28;20067;-92
2022/04/18 06:52:27;;;;;;;0.82;0.60;;;7.60;92.20;;;;;;9573035;28;20052;-92
2022/04/18 06:58:47;;;;;;;4.28;0.80;;;7.90;89.40;;;;;;9635558;28;20039;-94
2022/04/18 07:09:59;;;;;;;1.38;0.90;;;8.60;78.20;;;;;;9654492;28;20241;-92
2022/04/18 07:15:20;;;;;;;1.67;0.70;;;8.80;76.00;;;;;;9596183;28;20064;-93
2022/04/18 07:20:38;;;;;;;0.73;0.52;;;9.00;70.10;;;;;;9653150;28;20109;-93
2022/04/18 07:26:32;;;;;;;1.85;0.60;;;9.20;69.50;;;;;;9628322;28;20052;-92
2022/04/18 07:32:05;;;;;;;2.50;0.77;;;9.60;68.40;;;;;;9791356;28;20114;-92
2022/04/18 07:43:54;;;;;;;2.83;0.40;;;10.00;66.50;;;;;;10040975;28;20103;-93
2022/04/18 07:49:11;;;;;;;3.03;0.40;;;10.20;66.00;;;;;;10097194;28;20072;-94
2022/04/18 07:54:22;;;;;;;3.15;0.50;;;10.40;65.00;;;;;;10083443;28;20051;-92
2022/04/18 07:59:57;;;;;;;1.00;0.55;;;10.60;64.50;;;;;;9970917;28;20090;-91
2022/04/18 08:05:40;;;;;;;;;;;10.80;63.30;;;;;;10093990;28;20050;-91
2022/04/18 08:10:44;;;;;;;1.42;0.50;;;11.00;61.80;;;;;;10204273;28;19960;-91
2022/04/18 08:15:47;;;;;;;2.05;0.50;;;11.10;60.90;;;;;;10099558;28;20070;-93
2022/04/18 08:20:53;;;;;;;2.17;0.50;;;11.20;58.40;;;;;;10225573;28;20093;-91
2022/04/18 08:26:03;;;;;;;0.80;0.45;;;11.40;56.80;;;;;;10078748;28;20744;-90
2022/04/18 08:31:26;;;;;;;3.40;0.70;;;11.60;58.40;;;;;;10062942;28;20593;-90
2022/04/18 08:36:30;;;;;;;1.35;0.40;;;11.90;56.20;;;;;;10175382;28;20129;-90
2022/04/18 08:41:59;;;;;;;1.70;0.50;;;12.10;57.00;;;;;;10160424;28;20125;-90
2022/04/18 08:52:43;;;;;;;2.17;0.60;;;12.30;56.40;;;;;;10153083;28;20077;-90
2022/04/18 08:52:45;;;;;;;1.00;0.50;;;12.40;55.70;;;;;;10025717;28;20259;-90
2022/04/18 08:58:09;;;;;;;2.10;0.70;;;12.60;56.10;;;;;;10043747;28;20085;-90
2022/04/18 09:03:15;;;;;;;3.88;0.70;;;12.80;54.50;;;;;;10103902;28;20084;-89
2022/04/18 09:08:30;;;;;;;2.08;0.50;;;13.00;55.30;;;;;;10138419;28;21552;-90
2022/04/18 09:13:45;;;;;;;1.23;0.60;;;13.10;54.70;;;;;;10127017;28;20518;-89
2022/04/18 09:19:11;;;;;;;1.52;0.60;;;13.10;55.60;;;;;;10122214;28;20062;-90
2022/04/18 09:24:34;;;;;;;4.57;0.70;;;13.20;54.60;;;;;;10184345;28;20065;-90
2022/04/18 09:29:39;;;;;;;0.90;0.57;;;13.60;54.70;;;;;;10242687;28;20058;-89
2022/04/18 09:34:43;;;;;;;3.00;0.70;;;13.80;53.70;;;;;;10212759;28;20500;-90
2022/04/18 09:39:54;;;;;;;1.95;0.47;;;13.90;52.80;;;;;;10199127;28;20558;-91
2022/04/18 09:44:57;;;;;;;1.92;0.75;;;14.10;50.70;;;;;;10091727;28;20432;-88
2022/04/18 09:50:58;;;;;;;2.42;0.60;;;14.00;51.00;;;;;;10323774;28;20080;-89
2022/04/18 09:55:49;;;;;;;1.73;0.80;;;14.20;51.10;;;;;;10296642;28;20508;-91
2022/04/18 10:00:52;;;;;;;1.27;0.50;;;14.30;50.90;;;;;;10286149;28;20120;-87
2022/04/18 10:05:55;;;;;;;1.42;0.60;;;14.40;50.40;;;;;;10256042;28;20113;-87
2022/04/18 10:10:59;;;;;;;3.25;0.95;;;14.60;50.00;;;;;;10283109;28;20123;-88
2022/04/18 10:16:02;;;;;;;2.13;0.47;;;14.50;49.60;;;;;;10337826;28;20128;-87
2022/04/18 10:21:14;;;;;;;2.95;0.50;;;14.70;50.30;;;;;;10337453;28;20069;-90
2022/04/18 10:26:38;;;;;;;12.48;6.63;;;15.00;50.10;;;;;;10335526;28;20380;-88
2022/04/18 10:31:41;;;;;;;2.85;0.70;;;15.40;49.20;;;;;;10326609;28;20521;-87
2022/04/18 10:36:47;;;;;;;1.75;0.45;;;16.10;48.40;;;;;;10236179;28;20336;-91
2022/04/18 10:41:59;;;;;;;2.50;0.57;;;16.60;46.20;;;;;;10300449;28;20173;-91
2022/04/18 10:47:06;;;;;;;0.50;0.40;;;16.80;45.80;;;;;;10292276;28;20042;-91
2022/04/18 10:52:27;;;;;;;2.15;0.50;;;17.40;45.60;;;;;;10116212;28;20127;-90
2022/04/18 10:57:31;;;;;;;1.15;0.40;;;17.50;43.70;;;;;;10186723;28;20112;-91
2022/04/18 11:02:39;;;;;;;1.13;0.30;;;17.80;41.80;;;;;;10306046;28;20516;-89
2022/04/18 11:07:45;;;;;;;1.52;0.35;;;17.90;43.50;;;;;;10264526;28;20046;-93
2022/04/18 11:12:50;;;;;;;1.20;0.30;;;18.10;42.50;;;;;;10311796;28;20400;-91
2022/04/18 11:18:33;;;;;;;0.73;0.35;;;17.80;41.90;;;;;;10174943;28;20290;-91
2022/04/18 11:24:41;;;;;;;1.67;0.40;;;18.10;41.40;;;;;;10153705;28;20046;-91
2022/04/18 11:29:59;;;;;;;1.67;0.50;;;18.40;42.30;;;;;;10212632;28;21544;-89
2022/04/18 11:35:13;;;;;;;2.22;0.40;;;18.40;42.60;;;;;;10275045;28;20069;-90
2022/04/18 11:40:20;;;;;;;1.02;0.52;;;18.30;42.50;;;;;;10222601;28;20054;-90
2022/04/18 11:45:24;;;;;;;2.35;0.40;;;18.70;42.00;;;;;;10258869;28;20074;-91
2022/04/18 11:50:26;;;;;;;1.35;0.30;;;18.50;40.20;;;;;;10338039;28;20062;-91
2022/04/18 11:55:31;;;;;;;0.52;0.20;;;19.10;42.10;;;;;;10274361;28;20114;-89
2022/04/18 12:11:25;;;;;;;2.65;0.30;;;19.00;40.00;;;;;;10320987;28;20580;-91
2022/04/18 12:16:36;;;;;;;1.80;0.22;;;19.10;40.10;;;;;;10332851;28;20145;-91
2022/04/18 12:21:39;;;;;;;3.15;0.40;;;19.40;39.60;;;;;;10284876;28;20056;-91
2022/04/18 12:26:41;;;;;;;1.00;0.40;;;19.50;41.80;;;;;;10319250;28;20108;-91
2022/04/18 12:31:47;;;;;;;0.30;0.20;;;19.40;39.80;;;;;;10329755;28;20475;-90
2022/04/18 12:36:56;;;;;;;;;;;19.70;40.40;;;;;;10321520;28;20386;-90
2022/04/18 12:42:04;;;;;;;1.35;0.55;;;19.40;40.30;;;;;;10332003;28;19929;-92
2022/04/18 12:47:16;;;;;;;2.70;0.40;;;19.60;41.00;;;;;;10311981;28;20050;-91
2022/04/18 12:52:24;;;;;;;0.75;0.30;;;19.80;40.80;;;;;;10327256;28;20073;-92
2022/04/18 12:57:31;;;;;;;1.95;0.30;;;19.60;40.00;;;;;;10252755;28;20092;-95
2022/04/18 13:02:57;;;;;;;0.77;0.20;;;19.80;40.30;;;;;;10149320;28;20067;-91
2022/04/18 13:08:05;;;;;;;2.15;0.40;;;19.80;39.10;;;;;;10321796;28;20042;-92
2022/04/18 13:13:19;;;;;;;1.73;0.30;;;20.30;39.80;;;;;;10318908;28;20069;-92
2022/04/18 13:18:22;;;;;;;1.02;0.30;;;20.80;37.90;;;;;;10319759;28;20050;-92
2022/04/18 13:23:25;;;;;;;1.98;0.30;;;20.40;37.80;;;;;;10318207;28;20041;-92
2022/04/18 13:28:27;;;;;;;1.08;0.30;;;19.60;39.40;;;;;;10330326;28;20045;-91
2022/04/18 13:33:29;;;;;;;2.60;0.30;;;20.70;38.40;;;;;;10315715;28;20057;-91
2022/04/18 13:38:33;;;;;;;0.28;0.20;;;21.20;37.60;;;;;;10287935;28;20484;-90
2022/04/18 13:43:35;;;;;;;0.55;0.30;;;21.50;38.30;;;;;;10318213;28;20081;-91
2022/04/18 13:48:38;;;;;;;0.38;0.20;;;21.50;37.40;;;;;;10331412;28;20493;-91
2022/04/18 13:53:40;;;;;;;1.00;0.30;;;21.70;37.00;;;;;;10346951;28;20495;-89
2022/04/18 13:58:42;;;;;;;0.30;0.20;;;21.90;36.00;;;;;;10344099;28;20077;-91
2022/04/18 14:03:44;;;;;;;0.40;0.20;;;22.10;35.70;;;;;;10317687;28;20133;-92
2022/04/18 14:08:46;;;;;;;0.60;0.20;;;21.70;35.20;;;;;;10317456;28;20055;-91
2022/04/18 14:13:48;;;;;;;0.88;0.35;;;21.90;36.00;;;;;;10305932;28;20408;-92
2022/04/18 14:24:13;;;;;;;0.45;0.20;;;22.80;36.00;;;;;;10317736;28;20057;-89
2022/04/18 14:29:15;;;;;;;0.85;0.30;;;23.00;35.30;;;;;;10320528;28;20126;-90
2022/04/18 14:34:17;;;;;;;2.35;0.30;;;23.50;34.60;;;;;;10315878;28;20065;-90
2022/04/18 14:39:20;;;;;;;0.85;0.30;;;23.40;34.40;;;;;;10328591;28;20038;-89
2022/04/18 14:44:22;;;;;;;1.10;0.20;;;24.10;33.70;;;;;;10348152;28;20047;-90
2022/04/18 14:49:24;;;;;;;3.03;0.22;;;24.40;32.70;;;;;;10320928;28;20046;-90
2022/04/18 14:54:26;;;;;;;1.85;0.40;;;24.30;32.10;;;;;;10309384;28;20038;-89
2022/04/18 14:59:28;;;;;;;1.30;0.25;;;24.50;32.00;;;;;;10296698;28;20132;-89
2022/04/18 15:04:30;;;;;;;1.67;0.20;;;24.30;32.70;;;;;;10334856;28;20136;-89
2022/04/18 15:09:32;;;;;;;2.40;0.30;;;23.80;33.90;;;;;;10339930;28;20054;-89
2022/04/18 15:14:36;;;;;;;1.40;0.28;;;23.50;32.20;;;;;;10313993;28;20117;-89
2022/04/18 15:19:37;;;;;;;0.50;0.30;;;23.60;32.20;;;;;;10286343;28;20423;-90
2022/04/18 15:24:40;;;;;;;0.30;0.15;;;23.30;32.30;;;;;;10338430;28;20042;-89
2022/04/18 15:29:42;;;;;;;0.60;0.30;;;22.80;33.50;;;;;;10165481;28;20059;-89
2022/04/18 15:34:44;;;;;;;1.58;0.20;;;22.70;33.90;;;;;;10335411;28;20025;-90
2022/04/18 15:39:46;;;;;;;0.93;0.20;;;22.00;34.30;;;;;;10337379;28;20062;-90
2022/04/18 15:44:48;;;;;;;0.55;0.20;;;22.10;35.00;;;;;;10349351;28;20053;-89
2022/04/18 15:49:50;;;;;;;0.40;0.20;;;21.80;35.20;;;;;;10353113;28;20046;-89
2022/04/18 15:54:52;;;;;;;1.30;0.22;;;21.60;34.80;;;;;;10276345;28;20157;-90
2022/04/18 15:59:54;;;;;;;0.63;0.10;;;21.50;35.90;;;;;;10321320;28;20511;-90
2022/04/18 16:04:56;;;;;;;0.60;0.20;;;20.90;35.10;;;;;;10321305;28;20046;-89
2022/04/18 16:09:58;;;;;;;0.82;0.20;;;21.10;35.00;;;;;;10317513;28;20492;-91
2022/04/18 16:15:00;;;;;;;0.50;0.20;;;20.80;35.50;;;;;;10351084;28;20918;-89
2022/04/18 16:20:03;;;;;;;0.63;0.22;;;20.50;35.50;;;;;;10352337;28;20064;-89
2022/04/18 16:25:05;;;;;;;1.75;0.20;;;20.40;36.90;;;;;;10344567;28;20056;-90
2022/04/18 16:35:30;;;;;;;1.13;0.30;;;20.70;36.80;;;;;;10338199;28;20216;-89
2022/04/18 16:40:32;;;;;;;0.28;0.15;;;20.70;36.40;;;;;;10316912;28;20065;-89
2022/04/18 16:45:49;;;;;;;0.22;0.20;;;20.60;36.00;;;;;;10313082;28;20042;-89
2022/04/18 16:50:51;;;;;;;0.95;0.20;;;20.70;36.90;;;;;;10345018;28;20073;-91
2022/04/18 16:55:53;;;;;;;0.63;0.10;;;20.50;36.60;;;;;;10316316;28;20069;-89
2022/04/18 17:00:56;;;;;;;0.60;0.20;;;20.40;36.50;;;;;;10316640;28;20073;-91
2022/04/18 17:06:00;;;;;;;0.20;0.20;;;20.40;37.00;;;;;;10272478;28;20038;-91
2022/04/18 17:11:02;;;;;;;0.30;0.20;;;20.30;37.50;;;;;;10127726;28;20050;-93
2022/04/18 17:16:06;;;;;;;1.40;0.20;;;20.20;37.70;;;;;;10300481;28;20050;-91
2022/04/18 17:21:14;;;;;;;0.30;0.20;;;20.00;37.50;;;;;;10200632;28;20054;-92
2022/04/18 17:26:18;;;;;;;0.33;0.20;;;19.90;38.00;;;;;;10240609;28;20081;-90
2022/04/18 17:31:20;;;;;;;0.50;0.20;;;19.70;38.20;;;;;;10331567;28;20049;-91
2022/04/18 17:36:22;;;;;;;0.20;0.20;;;19.60;38.70;;;;;;10317390;28;20049;-92
2022/04/18 17:41:25;;;;;;;0.77;0.30;;;19.20;39.70;;;;;;10333258;28;20048;-90
2022/04/18 17:46:27;;;;;;;0.43;0.20;;;19.00;40.40;;;;;;10302339;28;20046;-90
2022/04/18 17:51:30;;;;;;;1.00;0.30;;;18.70;40.80;;;;;;10323894;28;20384;-91
2022/04/18 17:56:32;;;;;;;1.50;0.32;;;18.50;41.40;;;;;;10326227;28;20073;-91
2022/04/18 18:01:40;;;;;;;1.95;0.30;;;18.20;42.70;;;;;;10334017;28;20056;-91
2022/04/18 18:06:42;;;;;;;1.23;0.40;;;18.00;43.50;;;;;;10330626;28;20046;-90
2022/04/18 18:11:45;;;;;;;1.98;0.43;;;17.70;44.00;;;;;;10301824;28;20049;-91
2022/04/18 18:16:47;;;;;;;0.60;0.30;;;17.50;45.00;;;;;;10326181;28;20057;-91
2022/04/18 18:21:52;;;;;;;1.63;0.30;;;17.30;46.20;;;;;;10309885;28;20097;-92
2022/04/18 18:26:54;;;;;;;1.35;0.75;;;17.10;46.30;;;;;;10327399;28;20404;-91
2022/04/18 18:31:56;;;;;;;2.67;0.82;;;16.80;49.00;;;;;;10298339;28;20451;-91
2022/04/18 18:36:58;;;;;;;2.97;1.27;;;16.50;50.40;;;;;;10340375;28;20057;-91
2022/04/18 18:42:03;;;;;;;7.45;2.67;;;16.30;51.00;;;;;;10142820;28;20054;-94
2022/04/18 18:47:49;;;;;;;10.10;4.70;;;16.10;51.60;;;;;;9939776;28;20059;-93
2022/04/18 18:53:07;;;;;;;10.90;5.82;;;15.80;54.50;;;;;;9929621;28;20047;-93
2022/04/18 18:58:40;;;;;;;9.18;4.28;;;15.50;55.90;;;;;;9979384;28;20042;-93
2022/04/18 19:04:12;;;;;;;3.50;1.60;;;15.20;56.80;;;;;;9953907;28;20105;-92
2022/04/18 19:09:21;;;;;;;6.57;3.03;;;14.80;55.10;;;;;;9986779;28;20105;-93
2022/04/18 19:14:40;;;;;;;5.70;1.42;;;14.60;57.60;;;;;;10217528;23;20076;-59
2022/04/18 19:30:25;;;;;;;1.40;0.60;;;13.80;59.70;;;;;;10423466;28;20098;-57
2022/04/18 19:35:27;;;;;;;2.90;1.08;;;13.50;60.00;;;;;;10423811;28;20106;-58
2022/04/18 19:40:30;;;;;;;2.38;0.95;;;13.20;60.30;;;;;;10423294;28;20353;-59
2022/04/18 19:45:32;;;;;;;2.00;1.05;;;13.00;61.10;;;;;;10422864;28;20384;-59
2022/04/18 19:50:34;;;;;;;4.40;1.40;;;12.80;61.80;;;;;;10424265;28;20127;-60
2022/04/18 19:55:36;;;;;;;5.78;2.72;;;12.60;62.80;;;;;;10427191;28;20106;-60
2022/04/18 20:00:38;;;;;;;3.65;1.75;;;12.50;63.70;;;;;;10409384;28;20114;-59
2022/04/18 20:05:39;;;;;;;3.88;1.95;;;12.30;64.20;;;;;;10417904;28;20045;-57
2022/04/18 20:10:41;;;;;;;4.80;1.33;;;12.20;64.20;;;;;;10431634;28;20049;-56
2022/04/18 20:15:43;;;;;;;3.22;0.77;;;12.00;63.90;;;;;;10427330;28;20123;-57
2022/04/18 20:20:53;;;;;;;0.77;0.50;;;11.80;63.80;;;;;;10429818;28;20495;-58
2022/04/18 20:25:57;;;;;;;2.38;0.70;;;11.60;63.50;;;;;;10429255;28;20068;-56
2022/04/18 20:31:00;;;;;;;4.45;0.75;;;11.40;62.80;;;;;;10428588;28;20053;-58
2022/04/18 20:36:02;;;;;;;2.10;0.68;;;11.40;63.70;;;;;;10425337;28;20044;-57
2022/04/18 20:41:04;;;;;;;1.45;0.90;;;11.30;64.50;;;;;;10427286;28;20045;-58
2022/04/18 20:46:05;;;;;;;2.97;0.90;;;11.30;64.70;;;;;;10427881;28;20052;-57
2022/04/18 20:51:07;;;;;;;3.78;1.80;;;11.20;65.50;;;;;;10425448;28;20106;-58
2022/04/18 21:01:30;;;;;;;7.10;1.50;;;11.00;67.90;;;;;;10428650;28;20056;-58
2022/04/18 21:06:33;;;;;;;2.88;1.23;;;10.90;67.10;;;;;;10428606;28;20063;-55
2022/04/18 21:11:36;;;;;;;2.03;1.00;;;10.70;67.60;;;;;;10431032;28;20033;-58
2022/04/18 21:16:38;;;;;;;2.88;1.42;;;10.50;67.80;;;;;;10396281;28;20049;-56
2022/04/18 21:21:40;;;;;;;2.65;0.90;;;10.50;67.40;;;;;;10386886;28;20124;-58
2022/04/18 21:26:42;;;;;;;5.28;1.77;;;10.40;68.90;;;;;;10388404;28;20088;-57
2022/04/18 21:31:43;;;;;;;6.70;1.70;;;10.30;72.90;;;;;;10390943;28;20060;-57
2022/04/18 21:36:47;;;;;;;2.85;0.90;;;10.20;74.40;;;;;;10387906;28;20049;-59
2022/04/18 21:41:50;;;;;;;3.67;1.15;;;10.00;75.10;;;;;;10384530;28;20186;-57
2022/04/18 21:46:52;;;;;;;4.63;1.05;;;9.70;73.50;;;;;;10383163;28;20103;-57
2022/04/18 21:51:54;;;;;;;3.95;0.75;;;9.60;73.40;;;;;;10384244;28;20046;-58
2022/04/18 21:56:56;;;;;;;1.95;0.85;;;9.50;73.40;;;;;;10387704;28;20061;-56
2022/04/18 22:01:57;;;;;;;3.55;0.93;;;9.50;74.50;;;;;;10383949;28;20830;-58
2022/04/18 22:06:59;;;;;;;1.48;0.60;;;9.50;75.50;;;;;;10386308;28;20085;-57
2022/04/18 22:12:01;;;;;;;3.22;0.70;;;9.40;75.50;;;;;;10387473;28;20042;-56
2022/04/18 22:17:04;;;;;;;5.53;0.70;;;9.30;76.90;;;;;;10422574;28;20053;-59
2022/04/18 22:27:33;;;;;;;2.53;0.50;;;9.20;76.30;;;;;;10425837;28;20068;-58
2022/04/18 22:32:36;;;;;;;2.38;0.60;;;9.10;77.70;;;;;;10425234;28;20048;-56
2022/04/18 22:37:38;;;;;;;1.63;0.47;;;9.00;80.30;;;;;;10428135;28;20041;-59
2022/04/18 22:42:40;;;;;;;2.67;0.65;;;8.80;82.90;;;;;;10424163;28;20045;-58
2022/04/18 22:47:42;;;;;;;3.35;1.00;;;8.70;83.30;;;;;;10427540;28;20052;-57
2022/04/18 22:52:44;;;;;;;1.55;0.70;;;8.70;84.00;;;;;;10426419;28;20103;-58
2022/04/18 22:57:45;;;;;;;3.53;0.63;;;8.60;84.50;;;;;;10411294;28;20479;-59
2022/04/18 23:02:48;;;;;;;3.17;0.90;;;8.50;87.00;;;;;;10429372;28;20064;-59
2022/04/18 23:07:49;;;;;;;6.13;0.60;;;8.50;88.10;;;;;;10420401;28;20049;-57
2022/04/18 23:12:51;;;;;;;2.80;0.60;;;8.50;90.00;;;;;;10408335;28;20049;-56
2022/04/18 23:17:53;;;;;;;2.45;0.60;;;8.50;90.70;;;;;;10425488;28;20037;-58
2022/04/18 23:22:56;;;;;;;2.28;0.80;;;8.30;89.60;;;;;;10428475;28;20052;-57
2022/04/18 23:27:59;;;;;;;1.95;0.50;;;8.20;90.40;;;;;;10425107;28;20052;-56
2022/04/18 23:33:00;;;;;;;4.18;0.80;;;8.00;90.00;;;;;;10424677;28;20383;-57
2022/04/18 23:38:03;;;;;;;3.47;0.60;;;7.90;90.20;;;;;;10426544;28;20111;-57
2022/04/18 23:43:05;;;;;;;2.00;0.80;;;7.80;87.60;;;;;;10426480;28;20449;-56
2022/04/18 23:48:07;;;;;;;1.58;0.52;;;7.80;86.20;;;;;;10434481;28;20442;-56
2022/04/18 23:53:09;;;;;;;0.80;0.50;;;7.70;85.80;;;;;;10434542;28;20052;-57
2022/04/18 23:58:12;;;;;;;3.55;0.55;;;7.70;86.90;;;;;;10433392;28;20044;-58
